Time;durP1;ratioP1;P1;durP2;ratioP2;P2;SDS_P1;SDS_P2;PMS_P1;PMS_P2;Temp;Humidity;BMP_temperature;BMP_pressure;BME280_temperature;BME280_humidity;BME280_pressure;Samples;Min_cycle;Max_cycle;Signal;HPM_P1;HPM_P2
2021/12/25 00:00:46;;;;;;;2.30;1.30;;;;;;;;;;5040280;28;21018;-87
2021/12/25 00:03:12;;;;;;;13.93;1.40;;;;;;;;;;5040108;28;20513;-86
2021/12/25 00:05:39;;;;;;;1.33;1.10;;;;;;;;;;5040660;28;20478;-86
2021/12/25 00:08:06;;;;;;;1.40;1.30;;;;;;;;;;5041730;28;20968;-85
2021/12/25 00:10:32;;;;;;;2.27;0.97;;;;;;;;;;5040921;28;20902;-86
2021/12/25 00:12:59;;;;;;;1.17;0.80;;;;;;;;;;5040622;28;20456;-85
2021/12/25 00:15:26;;;;;;;1.53;1.40;;;;;;;;;;5039595;28;20487;-87
2021/12/25 00:17:52;;;;;;;0.90;0.90;;;;;;;;;;5039722;28;20449;-87
2021/12/25 00:20:18;;;;;;;3.28;1.10;;;;;;;;;;5042858;28;20483;-87
2021/12/25 00:22:46;;;;;;;1.67;0.77;;;;;;;;;;5042239;28;20208;-86
2021/12/25 00:25:14;;;;;;;2.50;1.10;;;;;;;;;;5040936;28;21245;-87
2021/12/25 00:27:49;;;;;;;1.50;0.80;;;;;;;;;;5041320;28;20455;-87
2021/12/25 00:30:23;;;;;;;1.42;1.10;;;;;;;;;;5042538;28;20871;-87
2021/12/25 00:32:58;;;;;;;1.87;1.07;;;;;;;;;;5040183;28;20806;-87
2021/12/25 00:35:24;;;;;;;2.00;0.70;;;;;;;;;;5038107;28;20956;-86
2021/12/25 00:37:52;;;;;;;1.77;1.10;;;;;;;;;;5039515;28;20488;-86
2021/12/25 00:40:18;;;;;;;4.17;0.90;;;;;;;;;;5040467;28;20452;-87
2021/12/25 00:42:45;;;;;;;1.33;1.00;;;;;;;;;;5038057;28;20473;-86
2021/12/25 00:45:11;;;;;;;1.40;0.70;;;;;;;;;;5041423;28;20533;-86
2021/12/25 00:47:37;;;;;;;1.70;0.90;;;;;;;;;;5039594;28;20514;-87
2021/12/25 00:50:04;;;;;;;1.80;0.80;;;;;;;;;;5039448;28;20550;-86
2021/12/25 00:52:30;;;;;;;3.37;1.40;;;;;;;;;;5039926;28;20620;-86
2021/12/25 00:54:58;;;;;;;0.70;0.70;;;;;;;;;;5041021;28;20854;-85
2021/12/25 00:57:24;;;;;;;3.20;1.10;;;;;;;;;;5040768;28;20472;-86
2021/12/25 00:59:51;;;;;;;2.45;1.20;;;;;;;;;;5038376;28;20220;-87
2021/12/25 01:02:17;;;;;;;2.67;0.93;;;;;;;;;;5040892;28;20199;-86
2021/12/25 01:04:43;;;;;;;1.60;1.33;;;;;;;;;;5041163;28;20668;-85
2021/12/25 01:07:09;;;;;;;2.10;1.40;;;;;;;;;;5042513;28;20323;-87
2021/12/25 01:09:36;;;;;;;3.75;0.95;;;;;;;;;;5041169;28;20806;-87
2021/12/25 01:12:04;;;;;;;1.53;1.00;;;;;;;;;;5042504;28;20213;-85
2021/12/25 01:14:35;;;;;;;2.72;1.00;;;;;;;;;;5039621;28;20570;-86
2021/12/25 01:23:13;;;;;;;0.93;0.80;;;;;;;;;;5023938;28;20447;-85
2021/12/25 01:25:59;;;;;;;1.13;0.77;;;;;;;;;;5038340;28;20306;-87
2021/12/25 01:31:28;;;;;;;1.83;1.05;;;;;;;;;;5045063;28;20224;-87
2021/12/25 01:34:29;;;;;;;1.95;1.08;;;;;;;;;;5044390;28;20321;-87
2021/12/25 01:37:01;;;;;;;4.57;1.33;;;;;;;;;;5045702;28;20225;-87
2021/12/25 01:39:44;;;;;;;3.35;1.08;;;;;;;;;;5043313;28;20236;-86
2021/12/25 01:47:48;;;;;;;2.28;0.95;;;;;;;;;;5044088;28;20681;-86
2021/12/25 01:50:15;;;;;;;1.33;0.80;;;;;;;;;;5042427;28;20730;-87
2021/12/25 01:52:41;;;;;;;1.05;0.82;;;;;;;;;;5042985;28;20204;-88
2021/12/25 01:55:08;;;;;;;3.00;1.27;;;;;;;;;;5042794;28;20655;-86
2021/12/25 01:57:35;;;;;;;2.60;1.30;;;;;;;;;;5043984;28;20235;-87
2021/12/25 02:00:05;;;;;;;3.08;1.10;;;;;;;;;;5042182;28;20769;-87
2021/12/25 02:02:31;;;;;;;4.15;1.40;;;;;;;;;;5044726;28;20220;-88
2021/12/25 02:04:58;;;;;;;4.55;1.67;;;;;;;;;;5043575;28;20723;-86
2021/12/25 02:07:24;;;;;;;1.92;1.35;;;;;;;;;;5041209;28;20211;-86
2021/12/25 02:09:50;;;;;;;2.85;1.70;;;;;;;;;;5043145;28;20278;-85
2021/12/25 02:12:17;;;;;;;1.20;0.73;;;;;;;;;;5042311;28;20212;-87
2021/12/25 02:14:46;;;;;;;8.70;1.70;;;;;;;;;;5041413;28;20237;-87
2021/12/25 02:17:20;;;;;;;2.63;1.10;;;;;;;;;;5043630;28;20205;-86
2021/12/25 02:19:53;;;;;;;2.10;0.93;;;;;;;;;;5040183;28;20307;-86
2021/12/25 02:22:23;;;;;;;3.08;1.10;;;;;;;;;;5042981;28;20243;-86
2021/12/25 02:24:49;;;;;;;5.50;1.83;;;;;;;;;;5041769;28;20283;-86
2021/12/25 02:27:15;;;;;;;1.33;0.90;;;;;;;;;;5043366;28;20207;-87
2021/12/25 02:29:42;;;;;;;2.40;1.10;;;;;;;;;;5042263;28;20234;-86
2021/12/25 02:32:10;;;;;;;3.00;0.90;;;;;;;;;;5040581;28;20741;-87
2021/12/25 02:34:36;;;;;;;5.57;0.77;;;;;;;;;;5042567;28;20235;-85
2021/12/25 02:37:04;;;;;;;3.00;1.13;;;;;;;;;;5043676;28;20205;-88
2021/12/25 02:39:30;;;;;;;2.08;0.98;;;;;;;;;;5042260;28;20654;-85
2021/12/25 02:41:57;;;;;;;2.97;1.10;;;;;;;;;;5043026;28;20229;-86
2021/12/25 02:44:23;;;;;;;1.83;1.15;;;;;;;;;;5042525;28;20233;-85
2021/12/25 02:46:53;;;;;;;2.85;1.25;;;;;;;;;;5042984;28;20555;-87
2021/12/25 02:49:20;;;;;;;2.00;0.70;;;;;;;;;;5042262;28;20682;-87
2021/12/25 02:51:46;;;;;;;3.92;1.00;;;;;;;;;;5041548;28;20631;-84
2021/12/25 02:54:14;;;;;;;2.35;1.15;;;;;;;;;;5041639;28;20662;-87
2021/12/25 02:56:40;;;;;;;1.00;0.90;;;;;;;;;;5039222;28;20271;-86
2021/12/25 02:59:06;;;;;;;4.22;1.13;;;;;;;;;;5040364;28;20206;-85
2021/12/25 03:01:33;;;;;;;4.43;0.65;;;;;;;;;;5040905;28;20331;-86
2021/12/25 03:03:59;;;;;;;5.30;1.52;;;;;;;;;;5042481;28;20225;-85
2021/12/25 03:06:25;;;;;;;2.15;0.80;;;;;;;;;;5043131;28;20207;-85
2021/12/25 03:08:52;;;;;;;0.80;0.80;;;;;;;;;;5040705;28;20198;-87
2021/12/25 03:11:19;;;;;;;1.23;0.90;;;;;;;;;;5040534;28;20228;-85
2021/12/25 03:13:56;;;;;;;0.70;0.70;;;;;;;;;;5042787;28;20218;-88
2021/12/25 03:16:23;;;;;;;2.67;1.40;;;;;;;;;;5041652;28;20213;-88
2021/12/25 03:18:52;;;;;;;1.10;0.90;;;;;;;;;;5037235;28;20206;-86
2021/12/25 03:21:18;;;;;;;1.25;1.00;;;;;;;;;;5043104;28;20198;-88
2021/12/25 03:23:45;;;;;;;2.78;1.05;;;;;;;;;;5041722;28;20719;-87
2021/12/25 03:26:12;;;;;;;0.75;0.75;;;;;;;;;;5040739;28;20749;-87
2021/12/25 03:28:43;;;;;;;1.80;1.00;;;;;;;;;;5040553;28;20228;-87
2021/12/25 03:31:15;;;;;;;1.15;0.82;;;;;;;;;;5041173;28;20313;-85
2021/12/25 03:33:42;;;;;;;2.80;1.05;;;;;;;;;;5041230;28;20305;-86
2021/12/25 03:36:08;;;;;;;1.85;1.40;;;;;;;;;;5038705;28;20237;-88
2021/12/25 03:38:34;;;;;;;3.03;0.88;;;;;;;;;;5041572;28;20205;-87
2021/12/25 03:41:01;;;;;;;1.20;1.05;;;;;;;;;;5039728;28;20243;-87
2021/12/25 03:43:28;;;;;;;0.90;0.85;;;;;;;;;;5040017;28;20209;-87
2021/12/25 03:45:56;;;;;;;3.38;1.23;;;;;;;;;;5039631;28;20241;-85
2021/12/25 03:48:43;;;;;;;4.10;1.13;;;;;;;;;;5040264;28;20259;-88
2021/12/25 03:59:24;;;;;;;1.65;1.20;;;;;;;;;;4965580;28;20397;-88
2021/12/25 04:01:58;;;;;;;0.68;0.50;;;;;;;;;;5039762;28;20202;-86
2021/12/25 04:04:32;;;;;;;1.05;0.90;;;;;;;;;;5039085;28;20240;-87
2021/12/25 04:07:03;;;;;;;3.55;0.98;;;;;;;;;;5041493;28;20299;-85
2021/12/25 04:09:32;;;;;;;2.70;1.35;;;;;;;;;;5041537;28;20708;-87
2021/12/25 04:12:02;;;;;;;3.63;0.80;;;;;;;;;;5041255;28;20225;-87
2021/12/25 04:14:28;;;;;;;1.50;0.90;;;;;;;;;;5039658;28;20226;-86
2021/12/25 04:16:56;;;;;;;1.30;1.20;;;;;;;;;;5040048;28;20234;-87
2021/12/25 04:19:22;;;;;;;2.20;0.90;;;;;;;;;;5040187;28;20283;-87
2021/12/25 04:21:53;;;;;;;2.55;1.17;;;;;;;;;;5039319;28;20196;-86
2021/12/25 04:24:20;;;;;;;0.80;0.80;;;;;;;;;;5038902;28;20723;-86
2021/12/25 04:26:48;;;;;;;1.50;0.70;;;;;;;;;;5041219;28;20583;-87
2021/12/25 04:29:33;;;;;;;1.95;1.30;;;;;;;;;;5039320;28;20593;-86
2021/12/25 04:32:34;;;;;;;1.88;1.13;;;;;;;;;;5041198;28;20312;-87
2021/12/25 04:49:16;;;;;;;2.35;1.20;;;;;;;;;;5039454;28;20201;-86
2021/12/25 05:02:45;;;;;;;1.27;1.17;;;;;;;;;;5045811;28;20284;-86
2021/12/25 05:05:16;;;;;;;1.15;1.05;;;;;;;;;;5044108;28;20253;-87
2021/12/25 05:07:42;;;;;;;3.92;1.60;;;;;;;;;;5045342;28;20262;-86
2021/12/25 05:10:09;;;;;;;1.95;0.80;;;;;;;;;;5044394;28;20229;-87
2021/12/25 05:12:35;;;;;;;2.38;0.93;;;;;;;;;;5044311;28;20263;-87
2021/12/25 05:15:01;;;;;;;3.28;1.20;;;;;;;;;;5044624;28;20255;-86
2021/12/25 05:17:27;;;;;;;2.80;1.48;;;;;;;;;;5047393;28;20643;-87
2021/12/25 05:19:55;;;;;;;4.60;1.25;;;;;;;;;;5041983;28;20233;-86
2021/12/25 05:22:23;;;;;;;3.13;1.40;;;;;;;;;;5041803;28;20581;-87
2021/12/25 05:24:50;;;;;;;0.95;0.70;;;;;;;;;;5042249;28;20242;-87
2021/12/25 05:27:17;;;;;;;1.38;0.85;;;;;;;;;;5045433;28;20233;-87
2021/12/25 05:29:46;;;;;;;1.00;0.90;;;;;;;;;;5042227;28;20314;-86
2021/12/25 05:32:13;;;;;;;1.50;0.93;;;;;;;;;;5044813;28;20225;-87
2021/12/25 05:34:39;;;;;;;0.95;0.85;;;;;;;;;;5043491;28;20234;-87
2021/12/25 05:37:05;;;;;;;4.85;1.27;;;;;;;;;;5044277;28;20255;-87
2021/12/25 05:39:33;;;;;;;1.30;0.98;;;;;;;;;;5042970;28;20244;-87
2021/12/25 05:41:59;;;;;;;2.60;1.15;;;;;;;;;;5044807;28;20205;-87
2021/12/25 05:44:25;;;;;;;1.00;0.90;;;;;;;;;;5067899;22;20261;-83
2021/12/25 05:46:52;;;;;;;2.95;1.30;;;;;;;;;;5049062;28;20224;-83
2021/12/25 05:49:18;;;;;;;2.13;1.33;;;;;;;;;;5045637;28;20220;-83
2021/12/25 05:51:44;;;;;;;0.85;0.80;;;;;;;;;;5048878;28;20245;-83
2021/12/25 05:54:11;;;;;;;2.97;1.25;;;;;;;;;;5043330;28;20235;-83
2021/12/25 05:56:38;;;;;;;1.75;1.20;;;;;;;;;;5026034;28;20198;-83
2021/12/25 05:59:07;;;;;;;5.57;1.35;;;;;;;;;;5024029;28;20621;-83
2021/12/25 06:01:33;;;;;;;5.97;1.30;;;;;;;;;;5026438;28;20208;-82
2021/12/25 06:04:00;;;;;;;0.80;0.80;;;;;;;;;;5025503;28;20735;-83
2021/12/25 06:06:26;;;;;;;2.10;0.93;;;;;;;;;;5026693;28;20286;-83
2021/12/25 06:08:52;;;;;;;3.70;1.23;;;;;;;;;;5025098;28;20252;-83
2021/12/25 06:11:19;;;;;;;9.88;1.40;;;;;;;;;;5024717;28;20229;-83
2021/12/25 06:13:57;;;;;;;2.97;1.75;;;;;;;;;;5024448;28;20199;-82
2021/12/25 06:16:23;;;;;;;6.72;1.33;;;;;;;;;;5024680;28;20222;-83
2021/12/25 06:18:50;;;;;;;3.03;1.00;;;;;;;;;;5023833;28;20253;-83
2021/12/25 06:21:16;;;;;;;2.50;1.17;;;;;;;;;;5023023;28;20202;-83
2021/12/25 06:23:42;;;;;;;1.33;1.00;;;;;;;;;;5023996;28;20272;-82
2021/12/25 06:26:08;;;;;;;3.67;1.23;;;;;;;;;;5025343;28;20226;-83
2021/12/25 06:28:35;;;;;;;1.33;0.95;;;;;;;;;;5022417;28;20226;-80
2021/12/25 06:31:02;;;;;;;2.35;1.45;;;;;;;;;;5024551;28;20288;-81
2021/12/25 06:33:28;;;;;;;1.27;0.90;;;;;;;;;;5024909;28;20195;-80
2021/12/25 06:35:55;;;;;;;2.92;1.10;;;;;;;;;;5025562;28;20234;-81
2021/12/25 06:38:21;;;;;;;2.58;1.13;;;;;;;;;;5023334;28;20244;-80
2021/12/25 06:40:47;;;;;;;4.60;1.58;;;;;;;;;;5023550;28;20246;-80
2021/12/25 06:43:13;;;;;;;1.42;1.10;;;;;;;;;;5022938;28;20230;-80
2021/12/25 06:45:40;;;;;;;1.98;1.17;;;;;;;;;;5025627;28;20227;-81
2021/12/25 06:48:07;;;;;;;2.80;0.90;;;;;;;;;;5024188;28;20226;-79
2021/12/25 06:50:33;;;;;;;1.13;1.02;;;;;;;;;;5024376;28;20622;-81
2021/12/25 06:53:00;;;;;;;1.90;1.02;;;;;;;;;;5025039;28;20261;-80
2021/12/25 06:55:26;;;;;;;5.32;1.40;;;;;;;;;;5024854;28;20230;-80
2021/12/25 06:57:55;;;;;;;4.57;1.10;;;;;;;;;;5021591;28;20203;-81
2021/12/25 07:00:21;;;;;;;4.60;1.20;;;;;;;;;;5022905;28;20257;-80
2021/12/25 07:02:48;;;;;;;1.02;0.80;;;;;;;;;;5025663;28;20812;-80
2021/12/25 07:05:16;;;;;;;2.53;1.27;;;;;;;;;;5023533;28;20703;-80
2021/12/25 07:07:43;;;;;;;2.30;1.60;;;;;;;;;;5019236;28;20206;-79
2021/12/25 07:10:09;;;;;;;2.65;1.40;;;;;;;;;;5016474;28;20254;-80
2021/12/25 07:12:37;;;;;;;2.05;1.00;;;;;;;;;;5021043;28;20229;-81
2021/12/25 07:15:04;;;;;;;1.90;1.00;;;;;;;;;;5022803;28;20227;-81
2021/12/25 07:17:30;;;;;;;2.42;1.35;;;;;;;;;;5025689;28;20207;-80
2021/12/25 07:19:57;;;;;;;1.48;1.38;;;;;;;;;;5025760;28;20238;-80
2021/12/25 07:22:24;;;;;;;3.55;1.42;;;;;;;;;;5023980;28;20226;-81
2021/12/25 07:24:50;;;;;;;3.35;1.30;;;;;;;;;;5022577;28;20643;-80
2021/12/25 07:27:17;;;;;;;1.50;1.33;;;;;;;;;;5020632;28;20218;-81
2021/12/25 07:29:43;;;;;;;10.50;1.60;;;;;;;;;;5022704;28;20608;-80
2021/12/25 07:32:09;;;;;;;3.03;1.90;;;;;;;;;;5016751;28;20863;-81
2021/12/25 07:34:36;;;;;;;4.65;1.33;;;;;;;;;;5024046;28;20226;-80
2021/12/25 07:37:03;;;;;;;2.20;1.25;;;;;;;;;;5025210;28;20241;-80
2021/12/25 07:39:31;;;;;;;3.53;1.60;;;;;;;;;;5018565;28;20199;-81
2021/12/25 07:41:57;;;;;;;5.60;2.45;;;;;;;;;;5025062;28;20284;-81
2021/12/25 07:44:23;;;;;;;8.30;2.42;;;;;;;;;;5023273;28;20279;-80
2021/12/25 07:46:49;;;;;;;4.35;2.20;;;;;;;;;;5020135;28;20287;-80
2021/12/25 07:49:19;;;;;;;3.17;2.30;;;;;;;;;;5022350;28;20344;-80
2021/12/25 07:51:45;;;;;;;3.78;2.50;;;;;;;;;;5023663;28;20240;-81
2021/12/25 07:54:12;;;;;;;5.40;2.60;;;;;;;;;;5024186;28;20284;-81
2021/12/25 07:56:39;;;;;;;4.25;2.72;;;;;;;;;;5021432;28;20256;-81
2021/12/25 07:59:06;;;;;;;4.88;4.35;;;;;;;;;;5022889;28;20198;-79
2021/12/25 08:01:35;;;;;;;5.90;3.50;;;;;;;;;;5019855;28;20313;-81
2021/12/25 08:04:01;;;;;;;4.85;3.20;;;;;;;;;;5024051;28;20261;-80
2021/12/25 08:06:28;;;;;;;4.28;3.97;;;;;;;;;;5021909;28;20202;-80
2021/12/25 08:08:56;;;;;;;5.85;3.72;;;;;;;;;;5022945;28;20685;-81
2021/12/25 08:11:22;;;;;;;4.85;3.30;;;;;;;;;;5018799;28;20197;-80
2021/12/25 08:13:49;;;;;;;3.83;3.42;;;;;;;;;;5023048;28;20252;-78
2021/12/25 08:16:16;;;;;;;3.40;2.90;;;;;;;;;;5019818;28;20205;-81
2021/12/25 08:18:42;;;;;;;4.50;3.30;;;;;;;;;;5024480;28;20222;-79
2021/12/25 08:21:08;;;;;;;4.85;2.80;;;;;;;;;;5025713;28;20213;-80
2021/12/25 08:23:34;;;;;;;3.67;2.28;;;;;;;;;;5025933;28;20241;-81
2021/12/25 08:26:01;;;;;;;2.97;2.70;;;;;;;;;;5025951;28;20231;-81
2021/12/25 08:28:27;;;;;;;3.97;2.42;;;;;;;;;;5024569;28;20218;-81
2021/12/25 08:30:55;;;;;;;3.22;1.83;;;;;;;;;;5026600;28;20283;-81
2021/12/25 08:33:21;;;;;;;3.65;2.30;;;;;;;;;;5025707;28;20639;-81
2021/12/25 08:35:47;;;;;;;4.18;2.65;;;;;;;;;;5025696;28;20756;-80
2021/12/25 08:38:14;;;;;;;3.63;3.08;;;;;;;;;;5025219;28;20796;-81
2021/12/25 08:40:41;;;;;;;4.53;1.67;;;;;;;;;;5024949;28;20202;-81
2021/12/25 08:43:07;;;;;;;2.30;2.20;;;;;;;;;;5025234;28;20605;-81
2021/12/25 08:45:45;;;;;;;2.88;2.47;;;;;;;;;;5026096;28;20236;-79
2021/12/25 08:48:14;;;;;;;4.47;1.80;;;;;;;;;;5025493;28;20222;-80
2021/12/25 08:50:41;;;;;;;2.00;1.40;;;;;;;;;;5026254;28;20198;-81
2021/12/25 08:53:07;;;;;;;3.10;1.90;;;;;;;;;;5026189;28;20219;-81
2021/12/25 08:55:34;;;;;;;8.73;2.45;;;;;;;;;;5024720;28;20720;-81
2021/12/25 08:58:00;;;;;;;2.63;2.10;;;;;;;;;;5025402;28;20287;-79
2021/12/25 09:00:26;;;;;;;6.20;2.85;;;;;;;;;;5026305;28;20203;-81
2021/12/25 09:02:52;;;;;;;3.08;2.03;;;;;;;;;;5025466;28;20227;-81
2021/12/25 09:05:20;;;;;;;3.33;1.90;;;;;;;;;;5024461;28;20341;-81
2021/12/25 09:07:46;;;;;;;3.00;1.75;;;;;;;;;;5025543;28;20248;-81
2021/12/25 09:10:13;;;;;;;7.32;2.38;;;;;;;;;;5021212;28;20236;-82
2021/12/25 09:12:42;;;;;;;3.05;1.92;;;;;;;;;;5026211;28;20226;-80
2021/12/25 09:15:08;;;;;;;4.22;2.38;;;;;;;;;;5026777;28;20253;-80
2021/12/25 09:17:35;;;;;;;5.47;2.45;;;;;;;;;;5024317;28;20277;-81
2021/12/25 09:20:01;;;;;;;2.70;1.90;;;;;;;;;;5024165;28;20633;-81
2021/12/25 09:22:29;;;;;;;2.13;2.03;;;;;;;;;;5022568;28;20214;-81
2021/12/25 09:24:55;;;;;;;6.13;2.60;;;;;;;;;;5022902;28;20767;-81
2021/12/25 09:27:21;;;;;;;3.30;2.80;;;;;;;;;;5025502;28;20281;-81
2021/12/25 09:29:48;;;;;;;4.15;2.22;;;;;;;;;;5024288;28;20203;-82
2021/12/25 09:32:14;;;;;;;2.83;1.73;;;;;;;;;;5024856;28;20260;-81
2021/12/25 09:34:40;;;;;;;4.25;2.63;;;;;;;;;;5022124;28;20313;-81
2021/12/25 09:37:07;;;;;;;3.22;2.83;;;;;;;;;;5024087;28;20237;-81
2021/12/25 09:39:35;;;;;;;4.90;2.05;;;;;;;;;;5024383;28;20650;-81
2021/12/25 09:42:01;;;;;;;3.05;2.40;;;;;;;;;;5023403;28;20245;-81
2021/12/25 09:44:28;;;;;;;2.88;1.45;;;;;;;;;;5025241;28;20238;-81
2021/12/25 09:46:54;;;;;;;7.18;1.95;;;;;;;;;;5026225;28;20249;-81
2021/12/25 09:49:20;;;;;;;3.13;2.50;;;;;;;;;;5028967;28;20198;-81
2021/12/25 09:51:46;;;;;;;2.70;2.25;;;;;;;;;;5028699;28;20309;-79
2021/12/25 09:54:14;;;;;;;1.77;1.60;;;;;;;;;;5029343;28;20704;-82
2021/12/25 09:56:43;;;;;;;3.13;1.90;;;;;;;;;;5028377;28;20195;-81
2021/12/25 09:59:11;;;;;;;1.35;1.23;;;;;;;;;;5028538;28;20755;-81
2021/12/25 10:01:38;;;;;;;3.75;1.40;;;;;;;;;;5029441;28;20626;-81
2021/12/25 10:04:05;;;;;;;3.45;2.20;;;;;;;;;;5029694;28;20201;-80
2021/12/25 10:06:32;;;;;;;5.28;1.85;;;;;;;;;;5027883;28;20261;-81
2021/12/25 10:08:58;;;;;;;2.15;1.63;;;;;;;;;;5027483;28;20851;-81
2021/12/25 10:11:26;;;;;;;4.80;1.92;;;;;;;;;;5022119;28;20261;-82
2021/12/25 10:13:56;;;;;;;3.08;1.92;;;;;;;;;;5025512;28;20241;-81
2021/12/25 10:16:23;;;;;;;4.53;2.10;;;;;;;;;;5017543;28;20207;-80
2021/12/25 10:18:50;;;;;;;4.55;2.22;;;;;;;;;;5022818;28;20231;-81
2021/12/25 10:21:17;;;;;;;1.83;1.40;;;;;;;;;;5027405;28;20203;-81
2021/12/25 10:23:43;;;;;;;3.40;1.80;;;;;;;;;;5026762;28;20245;-81
2021/12/25 10:26:10;;;;;;;3.00;1.48;;;;;;;;;;5025236;28;20218;-81
2021/12/25 10:28:37;;;;;;;2.25;1.58;;;;;;;;;;5022515;28;20218;-81
2021/12/25 10:31:06;;;;;;;3.45;2.35;;;;;;;;;;5025428;28;20253;-81
2021/12/25 10:33:35;;;;;;;5.30;2.13;;;;;;;;;;5026355;28;20257;-82
2021/12/25 10:36:02;;;;;;;4.30;2.03;;;;;;;;;;5025923;28;20223;-81
2021/12/25 10:38:29;;;;;;;5.97;1.85;;;;;;;;;;5025016;28;20233;-82
2021/12/25 10:41:14;;;;;;;3.65;2.03;;;;;;;;;;5018204;28;20671;-81
2021/12/25 10:43:42;;;;;;;11.27;1.70;;;;;;;;;;5018391;28;20595;-82
2021/12/25 10:46:09;;;;;;;2.45;1.75;;;;;;;;;;5021980;28;20224;-81
2021/12/25 10:48:36;;;;;;;5.70;1.90;;;;;;;;;;5018620;28;20229;-81
2021/12/25 10:51:03;;;;;;;1.50;1.40;;;;;;;;;;5024504;28;20253;-81
2021/12/25 10:53:30;;;;;;;3.92;1.63;;;;;;;;;;5024160;28;20213;-82
2021/12/25 10:56:05;;;;;;;2.17;1.58;;;;;;;;;;5009461;28;20317;-81
2021/12/25 10:58:31;;;;;;;2.83;1.58;;;;;;;;;;5017517;28;20305;-81
2021/12/25 11:00:58;;;;;;;4.18;2.08;;;;;;;;;;5016211;28;20947;-81
2021/12/25 11:03:31;;;;;;;5.05;1.60;;;;;;;;;;5021616;28;20225;-81
2021/12/25 11:06:01;;;;;;;3.50;1.70;;;;;;;;;;5019556;28;20225;-81
2021/12/25 11:08:29;;;;;;;5.78;2.17;;;;;;;;;;5021165;28;20643;-81
2021/12/25 11:10:56;;;;;;;3.70;1.77;;;;;;;;;;5026649;28;20239;-81
2021/12/25 11:13:24;;;;;;;3.10;2.00;;;;;;;;;;5020996;28;20227;-82
2021/12/25 11:15:55;;;;;;;4.38;2.80;;;;;;;;;;5024983;28;20224;-81
2021/12/25 11:18:21;;;;;;;5.82;2.50;;;;;;;;;;5022650;28;20235;-82
2021/12/25 11:20:49;;;;;;;4.65;1.83;;;;;;;;;;5022851;28;20235;-81
2021/12/25 11:23:16;;;;;;;1.98;1.60;;;;;;;;;;5019180;28;20252;-82
2021/12/25 11:25:43;;;;;;;4.55;1.98;;;;;;;;;;5021558;28;20237;-80
2021/12/25 11:28:10;;;;;;;3.30;2.28;;;;;;;;;;5023349;28;20224;-81
2021/12/25 11:30:38;;;;;;;5.80;1.70;;;;;;;;;;5020793;28;20263;-82
2021/12/25 11:33:04;;;;;;;2.92;1.52;;;;;;;;;;5024284;28;20222;-81
2021/12/25 11:35:34;;;;;;;4.07;2.13;;;;;;;;;;5023697;28;20223;-81
2021/12/25 11:38:02;;;;;;;4.55;1.80;;;;;;;;;;5022085;28;20222;-80
2021/12/25 11:40:29;;;;;;;5.35;2.05;;;;;;;;;;5019827;28;20204;-82
2021/12/25 11:42:57;;;;;;;6.20;2.17;;;;;;;;;;5023073;28;20223;-81
2021/12/25 11:48:02;;;;;;;6.50;2.40;;;;;;;;;;5038361;28;20224;-86
2021/12/25 11:50:39;;;;;;;2.55;1.88;;;;;;;;;;5041613;28;20208;-87
2021/12/25 11:53:13;;;;;;;4.13;1.85;;;;;;;;;;5039569;28;20235;-88
2021/12/25 11:56:14;;;;;;;3.30;2.45;;;;;;;;;;5041860;28;20212;-87
2021/12/25 11:58:40;;;;;;;3.85;1.65;;;;;;;;;;5057567;28;20228;-88
2021/12/25 12:01:19;;;;;;;2.00;1.33;;;;;;;;;;5057103;28;20216;-87
2021/12/25 12:03:46;;;;;;;3.58;1.98;;;;;;;;;;5056367;28;20733;-87
2021/12/25 12:06:13;;;;;;;6.30;2.30;;;;;;;;;;5055410;28;20270;-87
2021/12/25 12:09:09;;;;;;;3.88;1.55;;;;;;;;;;5056571;28;20644;-85
2021/12/25 12:11:40;;;;;;;5.07;1.88;;;;;;;;;;5024555;28;20203;-87
2021/12/25 12:14:16;;;;;;;9.52;2.80;;;;;;;;;;5058906;28;20302;-88
2021/12/25 12:16:43;;;;;;;3.60;2.05;;;;;;;;;;5059149;28;20278;-86
2021/12/25 12:19:24;;;;;;;2.58;2.00;;;;;;;;;;5059585;28;20283;-87
2021/12/25 12:21:51;;;;;;;3.35;2.13;;;;;;;;;;5059253;28;20236;-88
2021/12/25 12:24:28;;;;;;;3.03;1.57;;;;;;;;;;5057780;28;20250;-87
2021/12/25 12:26:55;;;;;;;2.25;2.05;;;;;;;;;;5056574;28;21006;-87
2021/12/25 12:29:40;;;;;;;5.45;2.00;;;;;;;;;;5058450;28;20294;-86
2021/12/25 12:32:07;;;;;;;1.67;1.52;;;;;;;;;;5056590;28;20319;-87
2021/12/25 12:34:36;;;;;;;6.93;1.90;;;;;;;;;;5060288;28;20742;-88
2021/12/25 12:37:21;;;;;;;3.30;1.80;;;;;;;;;;5058927;28;20240;-87
2021/12/25 12:40:09;;;;;;;6.00;1.90;;;;;;;;;;5059840;28;20195;-86
2021/12/25 12:42:52;;;;;;;2.53;1.97;;;;;;;;;;5058455;28;20237;-87
2021/12/25 12:45:19;;;;;;;5.32;2.10;;;;;;;;;;5057862;28;20454;-86
2021/12/25 12:48:07;;;;;;;4.75;2.00;;;;;;;;;;5054771;28;20316;-87
2021/12/25 12:50:35;;;;;;;3.22;1.50;;;;;;;;;;5058333;28;20200;-86
2021/12/25 12:53:02;;;;;;;2.50;1.60;;;;;;;;;;5058305;28;20282;-88
2021/12/25 12:55:30;;;;;;;4.17;1.57;;;;;;;;;;5057592;28;20462;-85
2021/12/25 12:58:08;;;;;;;2.45;1.70;;;;;;;;;;5054161;28;20472;-87
2021/12/25 13:00:34;;;;;;;2.10;1.55;;;;;;;;;;5053910;28;20570;-87
2021/12/25 13:03:01;;;;;;;3.30;2.40;;;;;;;;;;5057597;28;20221;-86
2021/12/25 13:05:30;;;;;;;4.82;1.63;;;;;;;;;;5053532;28;20204;-88
2021/12/25 13:07:58;;;;;;;2.85;1.55;;;;;;;;;;5056368;28;20642;-88
2021/12/25 13:10:30;;;;;;;2.55;1.83;;;;;;;;;;5055079;28;20207;-87
2021/12/25 13:13:08;;;;;;;5.45;1.30;;;;;;;;;;5056117;28;20231;-86
2021/12/25 13:15:34;;;;;;;2.15;1.48;;;;;;;;;;5055710;28;20202;-88
2021/12/25 13:18:01;;;;;;;2.45;1.55;;;;;;;;;;5055110;28;20249;-86
2021/12/25 13:20:35;;;;;;;2.42;1.60;;;;;;;;;;5057641;28;20204;-87
2021/12/25 13:23:03;;;;;;;4.38;2.25;;;;;;;;;;5057468;28;20600;-86
2021/12/25 13:25:29;;;;;;;3.97;1.73;;;;;;;;;;5060674;28;20197;-86
2021/12/25 13:27:57;;;;;;;9.23;1.92;;;;;;;;;;5044322;28;20232;-87
2021/12/25 13:30:25;;;;;;;3.15;1.60;;;;;;;;;;5039819;28;20195;-87
2021/12/25 13:32:51;;;;;;;5.72;2.33;;;;;;;;;;5037671;28;20235;-86
2021/12/25 13:35:18;;;;;;;3.47;2.10;;;;;;;;;;5037518;28;20208;-87
2021/12/25 13:37:45;;;;;;;5.60;1.93;;;;;;;;;;5040696;28;20824;-89
2021/12/25 13:40:14;;;;;;;3.37;1.93;;;;;;;;;;5042043;28;20988;-86
2021/12/25 13:42:40;;;;;;;6.70;2.10;;;;;;;;;;5038390;28;20568;-87
2021/12/25 13:45:07;;;;;;;7.13;1.70;;;;;;;;;;5042372;28;20300;-86
2021/12/25 13:47:38;;;;;;;2.50;2.00;;;;;;;;;;5035975;28;20486;-87
2021/12/25 13:50:05;;;;;;;2.70;1.90;;;;;;;;;;5042107;28;20458;-87
2021/12/25 13:52:35;;;;;;;1.77;1.40;;;;;;;;;;5041519;28;20527;-87
2021/12/25 13:55:06;;;;;;;2.90;1.63;;;;;;;;;;5038914;28;20479;-87
2021/12/25 13:57:34;;;;;;;4.93;1.77;;;;;;;;;;5039641;28;20490;-87
2021/12/25 14:00:03;;;;;;;4.78;2.20;;;;;;;;;;5039874;28;20239;-86
2021/12/25 14:02:29;;;;;;;2.15;1.80;;;;;;;;;;5031194;28;20623;-87
2021/12/25 14:04:58;;;;;;;3.10;1.58;;;;;;;;;;5039772;28;20308;-87
2021/12/25 14:07:25;;;;;;;7.20;3.03;;;;;;;;;;5040351;28;20248;-87
2021/12/25 14:09:56;;;;;;;7.25;2.35;;;;;;;;;;5032665;28;20519;-86
2021/12/25 14:12:22;;;;;;;3.30;2.10;;;;;;;;;;5038528;28;20278;-87
2021/12/25 14:14:48;;;;;;;4.20;3.80;;;;;;;;;;5040512;28;20904;-86
2021/12/25 14:17:15;;;;;;;3.67;2.40;;;;;;;;;;5041027;28;20479;-87
2021/12/25 14:19:41;;;;;;;2.60;2.13;;;;;;;;;;5042031;28;20447;-87
2021/12/25 14:22:09;;;;;;;2.60;1.80;;;;;;;;;;5039545;28;20557;-87
2021/12/25 14:24:42;;;;;;;4.65;2.20;;;;;;;;;;5038559;28;20464;-86
2021/12/25 14:27:09;;;;;;;6.30;2.03;;;;;;;;;;5034102;28;20274;-87
2021/12/25 14:29:35;;;;;;;3.80;2.37;;;;;;;;;;5038893;28;20448;-88
2021/12/25 14:32:01;;;;;;;6.90;3.10;;;;;;;;;;5042243;28;20476;-87
2021/12/25 14:34:28;;;;;;;5.30;2.80;;;;;;;;;;5041143;28;20996;-86
2021/12/25 14:36:55;;;;;;;7.88;2.58;;;;;;;;;;5039723;28;20311;-88
2021/12/25 14:39:23;;;;;;;3.95;2.45;;;;;;;;;;5037027;28;20247;-87
2021/12/25 14:41:53;;;;;;;10.03;3.03;;;;;;;;;;5040933;28;20228;-87
2021/12/25 14:44:21;;;;;;;4.27;2.07;;;;;;;;;;5042252;28;20494;-87
2021/12/25 14:46:48;;;;;;;5.95;2.50;;;;;;;;;;5040286;28;21016;-87
2021/12/25 14:49:15;;;;;;;2.30;2.00;;;;;;;;;;5041924;28;20699;-88
2021/12/25 14:51:43;;;;;;;4.30;2.03;;;;;;;;;;5041845;28;20482;-87
2021/12/25 14:54:10;;;;;;;8.48;2.63;;;;;;;;;;5038549;28;20515;-87
2021/12/25 14:56:39;;;;;;;3.03;1.73;;;;;;;;;;5038330;28;20773;-87
2021/12/25 14:59:06;;;;;;;4.47;2.17;;;;;;;;;;5039883;28;20259;-87
2021/12/25 15:01:39;;;;;;;3.10;2.37;;;;;;;;;;5039970;28;20446;-87
2021/12/25 15:04:09;;;;;;;6.13;2.40;;;;;;;;;;5041512;28;20447;-88
2021/12/25 15:06:35;;;;;;;3.08;2.30;;;;;;;;;;5039197;28;20488;-88
2021/12/25 15:09:04;;;;;;;4.47;2.55;;;;;;;;;;5039427;28;20213;-87
2021/12/25 15:11:33;;;;;;;9.20;2.60;;;;;;;;;;5037781;28;20244;-87
2021/12/25 15:14:05;;;;;;;5.38;2.50;;;;;;;;;;5039230;28;20540;-87
2021/12/25 15:16:39;;;;;;;6.10;3.27;;;;;;;;;;5041122;28;20225;-86
2021/12/25 15:19:06;;;;;;;3.55;2.53;;;;;;;;;;5039950;28;20871;-87
2021/12/25 15:21:41;;;;;;;4.35;2.72;;;;;;;;;;5038766;28;20202;-86
2021/12/25 15:24:09;;;;;;;3.63;2.80;;;;;;;;;;5041553;28;20299;-87
2021/12/25 15:26:39;;;;;;;6.25;2.78;;;;;;;;;;5040510;28;20972;-88
2021/12/25 15:29:07;;;;;;;3.47;2.70;;;;;;;;;;5036944;28;20762;-87
2021/12/25 15:31:37;;;;;;;6.78;3.03;;;;;;;;;;5040566;28;20511;-87
2021/12/25 15:34:08;;;;;;;6.57;3.10;;;;;;;;;;5040576;28;20815;-87
2021/12/25 15:36:40;;;;;;;7.60;2.90;;;;;;;;;;5041274;28;20300;-87
2021/12/25 15:39:14;;;;;;;4.90;2.50;;;;;;;;;;5042398;28;20207;-88
2021/12/25 15:41:40;;;;;;;5.15;3.17;;;;;;;;;;5039695;28;20731;-90